Time,TemperatureF,DewpointF,PressureIn,WindDirection,WindDirectionDegrees,WindSpeedMPH,WindSpeedGustMPH,Humidity,HourlyPrecipIn,Conditions,Clouds,dailyrainin,SoftwareType,DateUTC
2013-08-12 00:00:00,66.7,61.3,30.02,SW,214,1.0,3.0,83,0.00,FEW,,0.00,WeatherDisplay:10.37,2013-08-11 14:00:00,
2013-08-12 00:10:00,66.4,61.4,30.02,South,186,0.0,3.0,84,0.00,FEW,,0.00,WeatherDisplay:10.37,2013-08-11 14:10:00,
2013-08-12 00:15:00,66.3,61.3,30.02,SSW,211,1.0,6.0,84,0.00,FEW,,0.00,WeatherDisplay:10.37,2013-08-11 14:15:00,
2013-08-12 00:25:00,66.2,61.2,30.01,South,190,0.0,2.0,84,0.00,FEW,,0.00,WeatherDisplay:10.37,2013-08-11 14:25:00,
2013-08-12 00:30:00,66.1,61.1,30.01,SSW,199,0.0,2.0,84,0.00,FEW,,0.00,WeatherDisplay:10.37,2013-08-11 14:30:00,
2013-08-12 00:35:00,66.0,61.0,30.01,SSW,201,0.0,2.0,84,0.00,FEW,,0.00,WeatherDisplay:10.37,2013-08-11 14:35:00,
2013-08-12 00:40:00,65.9,60.9,30.01,SSW,200,0.0,1.0,84,0.00,FEW,,0.00,WeatherDisplay:10.37,2013-08-11 14:40:00,
2013-08-12 00:45:00,65.9,60.9,30.01,SW,214,0.0,3.0,84,0.00,FEW,,0.00,WeatherDisplay:10.37,2013-08-11 14:45:00,
2013-08-12 00:50:00,65.8,60.9,30.01,SW,224,0.0,3.0,84,0.00,FEW,,0.00,WeatherDisplay:10.37,2013-08-11 14:50:00,
2013-08-12 00:55:00,65.8,60.8,30.01,SSW,207,1.0,2.0,84,0.00,FEW,,0.00,WeatherDisplay:10.37,2013-08-11 14:55:00,
2013-08-12 01:00:00,65.8,60.8,30.00,SSW,207,0.0,3.0,84,0.00,FEW,,0.00,WeatherDisplay:10.37,2013-08-11 15:00:00,
2013-08-12 01:10:00,65.9,60.9,30.00,SW,217,0.0,3.0,84,0.00,FEW,,0.00,WeatherDisplay:10.37,2013-08-11 15:10:00,
2013-08-12 01:15:00,65.9,60.9,30.00,SW,218,0.0,3.0,84,0.00,FEW,,0.00,WeatherDisplay:10.37,2013-08-11 15:15:00,
2013-08-12 01:20:00,66.0,61.4,30.00,SSW,213,0.0,5.0,85,0.00,FEW,,0.00,WeatherDisplay:10.37,2013-08-11 15:20:00,
2013-08-12 01:25:00,66.0,61.0,30.00,SSW,213,1.0,4.0,84,0.00,FEW,,0.00,WeatherDisplay:10.37,2013-08-11 15:25:00,
2013-08-12 01:30:00,66.0,61.0,30.00,SSW,207,0.0,3.0,84,0.00,FEW,,0.00,WeatherDisplay:10.37,2013-08-11 15:30:00,
2013-08-12 01:35:00,66.0,61.4,30.00,SSW,207,0.0,3.0,85,0.00,FEW,,0.00,WeatherDisplay:10.37,2013-08-11 15:35:00,
2013-08-12 01:40:00,65.9,60.9,30.00,SSW,209,1.0,3.0,84,0.00,FEW,,0.00,WeatherDisplay:10.37,2013-08-11 15:40:00,
2013-08-12 01:50:00,65.8,61.2,29.99,SW,215,0.0,4.0,85,0.00,FEW,,0.00,WeatherDisplay:10.37,2013-08-11 15:50:00,
2013-08-12 01:55:00,65.7,61.1,29.99,SW,225,0.0,3.0,85,0.00,FEW,,0.00,WeatherDisplay:10.37,2013-08-11 15:55:00,
2013-08-12 02:00:00,65.7,61.0,29.99,SW,228,1.0,4.0,85,0.00,FEW,,0.00,WeatherDisplay:10.37,2013-08-11 16:00:00,
2013-08-12 02:10:00,65.6,61.0,29.99,SW,220,0.0,2.0,85,0.00,FEW,,0.00,WeatherDisplay:10.37,2013-08-11 16:10:00,
2013-08-12 02:20:00,65.6,61.0,29.99,SW,233,1.0,3.0,85,0.00,FEW,,0.00,WeatherDisplay:10.37,2013-08-11 16:20:00,
2013-08-12 02:25:00,65.6,61.0,29.99,WSW,240,1.0,3.0,85,0.00,FEW,,0.00,WeatherDisplay:10.37,2013-08-11 16:25:00,
2013-08-12 02:40:00,65.6,61.0,29.99,SW,233,1.0,4.0,85,0.00,FEW,,0.00,WeatherDisplay:10.37,2013-08-11 16:40:00,
2013-08-12 02:45:00,65.6,60.9,29.99,SW,219,1.0,3.0,85,0.00,FEW,,0.00,WeatherDisplay:10.37,2013-08-11 16:45:00,
2013-08-12 02:50:00,65.6,61.0,29.99,SW,214,1.0,2.0,85,0.00,FEW,,0.00,WeatherDisplay:10.37,2013-08-11 16:50:00,
2013-08-12 02:55:00,65.6,61.0,29.99,SW,226,0.0,4.0,85,0.00,FEW,,0.00,WeatherDisplay:10.37,2013-08-11 16:55:00,
2013-08-12 03:00:00,65.7,61.1,29.99,SW,230,1.0,3.0,85,0.00,FEW,,0.00,WeatherDisplay:10.37,2013-08-11 17:00:00,
2013-08-12 03:10:00,65.7,61.1,29.99,SW,222,0.0,4.0,85,0.00,FEW,,0.00,WeatherDisplay:10.37,2013-08-11 17:10:00,
2013-08-12 03:15:00,65.7,61.0,29.99,SW,231,1.0,4.0,85,0.00,FEW,,0.00,WeatherDisplay:10.37,2013-08-11 17:15:00,
2013-08-12 03:20:00,65.6,61.0,29.99,SW,232,0.0,4.0,85,0.00,FEW,,0.00,WeatherDisplay:10.37,2013-08-11 17:20:00,
2013-08-12 03:30:00,65.5,60.9,29.98,SSW,210,0.0,1.0,85,0.00,FEW,,0.00,WeatherDisplay:10.37,2013-08-11 17:30:00,
2013-08-12 03:40:00,65.4,60.8,29.98,SSW,209,0.0,3.0,85,0.00,FEW,,0.00,WeatherDisplay:10.37,2013-08-11 17:40:00,
2013-08-12 03:45:00,65.4,60.8,29.98,SW,215,0.0,3.0,85,0.00,FEW,,0.00,WeatherDisplay:10.37,2013-08-11 17:45:00,
2013-08-12 03:50:00,65.5,60.9,29.98,SW,222,0.0,4.0,85,0.00,FEW,,0.00,WeatherDisplay:10.37,2013-08-11 17:50:00,
2013-08-12 04:00:00,65.7,61.1,29.98,SSW,203,1.0,3.0,85,0.00,FEW,,0.00,WeatherDisplay:10.37,2013-08-11 18:00:00,
2013-08-12 04:10:00,65.8,61.1,29.98,SW,227,0.0,2.0,85,0.00,FEW,,0.00,WeatherDisplay:10.37,2013-08-11 18:10:00,
2013-08-12 04:15:00,65.8,61.1,29.98,SW,230,0.0,2.0,85,0.00,FEW,,0.00,WeatherDisplay:10.37,2013-08-11 18:15:00,
2013-08-12 04:20:00,65.7,61.0,29.98,SW,225,0.0,3.0,85,0.00,FEW,,0.00,WeatherDisplay:10.37,2013-08-11 18:20:00,
2013-08-12 04:30:00,65.3,60.6,29.98,SSW,203,0.0,2.0,85,0.00,FEW,,0.00,WeatherDisplay:10.37,2013-08-11 18:30:00,
2013-08-12 04:40:00,65.0,60.4,29.98,SSE,167,1.0,5.0,85,0.00,FEW,,0.00,WeatherDisplay:10.37,2013-08-11 18:40:00,
2013-08-12 04:45:00,64.9,60.6,29.98,SSW,194,0.0,2.0,86,0.00,FEW,,0.00,WeatherDisplay:10.37,2013-08-11 18:45:00,
2013-08-12 04:50:00,64.7,60.4,29.98,SW,226,0.0,5.0,86,0.00,FEW,,0.00,WeatherDisplay:10.37,2013-08-11 18:50:00,
2013-08-12 04:55:00,64.5,60.2,29.98,SSW,212,0.0,3.0,86,0.00,FEW,,0.00,WeatherDisplay:10.37,2013-08-11 18:55:00,
2013-08-12 05:00:00,64.5,60.2,29.98,South,181,0.0,3.0,86,0.00,FEW,,0.00,WeatherDisplay:10.37,2013-08-11 19:00:00,
2013-08-12 05:10:00,64.2,59.9,29.99,SW,224,0.0,3.0,86,0.00,FEW,,0.00,WeatherDisplay:10.37,2013-08-11 19:10:00,
2013-08-12 05:15:00,64.1,60.2,29.99,SW,230,0.0,2.0,87,0.00,FEW,,0.00,WeatherDisplay:10.37,2013-08-11 19:15:00,
2013-08-12 05:20:00,64.0,59.7,29.99,SW,222,1.0,3.0,86,0.00,FEW,,0.00,WeatherDisplay:10.37,2013-08-11 19:20:00,
2013-08-12 05:25:00,63.9,60.0,29.99,SSW,195,0.0,4.0,87,0.00,FEW,,0.00,WeatherDisplay:10.37,2013-08-11 19:25:00,
2013-08-12 05:30:00,63.9,59.9,29.99,South,173,0.0,4.0,87,0.00,FEW,,0.00,WeatherDisplay:10.37,2013-08-11 19:30:00,
2013-08-12 05:35:00,63.9,60.0,29.99,SSW,195,0.0,3.0,87,0.00,FEW,,0.00,WeatherDisplay:10.37,2013-08-11 19:35:00,
2013-08-12 05:40:00,63.9,60.0,29.99,SSW,194,0.0,3.0,87,0.00,FEW,,0.00,WeatherDisplay:10.37,2013-08-11 19:40:00,
2013-08-12 05:45:00,63.8,59.9,29.99,SSW,196,0.0,2.0,87,0.00,FEW,,0.00,WeatherDisplay:10.37,2013-08-11 19:45:00,
2013-08-12 05:50:00,63.7,59.8,29.99,SW,217,1.0,4.0,87,0.00,FEW,,0.00,WeatherDisplay:10.37,2013-08-11 19:50:00,
2013-08-12 06:00:00,63.6,59.7,29.99,SSW,210,0.0,3.0,87,0.00,FEW,,0.00,WeatherDisplay:10.37,2013-08-11 20:00:00,
2013-08-12 06:10:00,63.5,59.6,30.00,SSW,192,0.0,3.0,87,0.00,FEW,,0.00,WeatherDisplay:10.37,2013-08-11 20:10:00,
2013-08-12 06:15:00,63.6,59.7,30.00,SSW,202,0.0,3.0,87,0.00,FEW,,0.00,WeatherDisplay:10.37,2013-08-11 20:15:00,
2013-08-12 06:20:00,63.7,59.7,30.00,SSW,209,1.0,3.0,87,0.00,FEW,,0.00,WeatherDisplay:10.37,2013-08-11 20:20:00,
2013-08-12 06:25:00,63.7,59.8,30.00,SSW,212,1.0,3.0,87,0.00,FEW,,0.00,WeatherDisplay:10.37,2013-08-11 20:25:00,
2013-08-12 06:30:00,63.7,59.8,30.00,SW,220,1.0,4.0,87,0.00,FEW,,0.00,WeatherDisplay:10.37,2013-08-11 20:30:00,
2013-08-12 06:35:00,63.7,59.8,30.00,SW,233,0.0,2.0,87,0.00,FEW,,0.00,WeatherDisplay:10.37,2013-08-11 20:35:00,
2013-08-12 06:40:00,63.7,59.8,30.01,WSW,243,0.0,3.0,87,0.00,FEW,,0.00,WeatherDisplay:10.37,2013-08-11 20:40:00,
2013-08-12 06:45:00,63.6,59.7,30.01,WSW,247,0.0,3.0,87,0.00,FEW,,0.00,WeatherDisplay:10.37,2013-08-11 20:45:00,
2013-08-12 06:50:00,63.6,59.7,30.01,WSW,238,1.0,4.0,87,0.00,FEW,,0.00,WeatherDisplay:10.37,2013-08-11 20:50:00,
2013-08-12 07:00:00,63.8,59.9,30.01,SW,216,0.0,2.0,87,0.00,FEW,,0.00,WeatherDisplay:10.37,2013-08-11 21:00:00,
2013-08-12 07:05:00,63.8,59.9,30.02,SW,214,1.0,4.0,87,0.00,FEW,,0.00,WeatherDisplay:10.37,2013-08-11 21:05:00,
2013-08-12 07:10:00,63.9,59.6,30.02,SW,218,1.0,4.0,86,0.00,FEW,,0.00,WeatherDisplay:10.37,2013-08-11 21:10:00,
2013-08-12 07:20:00,64.2,59.9,30.02,SW,235,1.0,5.0,86,0.00,FEW,,0.00,WeatherDisplay:10.37,2013-08-11 21:20:00,
2013-08-12 07:25:00,64.5,60.2,30.02,WSW,239,0.0,4.0,86,0.00,FEW,,0.00,WeatherDisplay:10.37,2013-08-11 21:25:00,
2013-08-12 07:35:00,65.2,60.5,30.02,SW,227,2.0,4.0,85,0.00,FEW,,0.00,WeatherDisplay:10.37,2013-08-11 21:35:00,
2013-08-12 07:40:00,65.6,60.9,30.02,SW,236,0.0,6.0,85,0.00,FEW,,0.00,WeatherDisplay:10.37,2013-08-11 21:40:00,
2013-08-12 07:45:00,65.9,61.3,30.02,SW,236,1.0,4.0,85,0.00,FEW,,0.00,WeatherDisplay:10.37,2013-08-11 21:45:00,
2013-08-12 07:50:00,66.3,61.3,30.02,SW,222,1.0,6.0,84,0.00,FEW,,0.00,WeatherDisplay:10.37,2013-08-11 21:50:00,
2013-08-12 08:00:00,66.8,61.5,30.02,SW,222,1.0,3.0,83,0.00,FEW,,0.00,WeatherDisplay:10.37,2013-08-11 22:00:00,
2013-08-12 08:10:00,67.5,61.8,30.02,SW,224,2.0,5.0,82,0.00,FEW,,0.00,WeatherDisplay:10.37,2013-08-11 22:10:00,
2013-08-12 08:20:00,68.0,61.9,30.02,SW,217,0.0,4.0,81,0.00,FEW,,0.00,WeatherDisplay:10.37,2013-08-11 22:20:00,
2013-08-12 08:25:00,68.4,62.3,30.02,SSW,203,2.0,5.0,81,0.00,FEW,,0.00,WeatherDisplay:10.37,2013-08-11 22:25:00,
2013-08-12 08:30:00,68.7,62.6,30.03,SSW,212,1.0,5.0,81,0.00,FEW,,0.00,WeatherDisplay:10.37,2013-08-11 22:30:00,
2013-08-12 08:35:00,69.2,62.7,30.03,SW,218,1.0,5.0,80,0.00,FEW,,0.00,WeatherDisplay:10.37,2013-08-11 22:35:00,
2013-08-12 08:40:00,69.7,62.9,30.03,SSW,209,1.0,4.0,79,0.00,FEW,,0.00,WeatherDisplay:10.37,2013-08-11 22:40:00,
2013-08-12 08:50:00,70.6,63.0,30.03,SSW,199,1.0,5.0,77,0.00,FEW,,0.00,WeatherDisplay:10.37,2013-08-11 22:50:00,
2013-08-12 08:55:00,71.0,63.4,30.03,SW,225,0.0,3.0,77,0.00,FEW,,0.00,WeatherDisplay:10.37,2013-08-11 22:55:00,
2013-08-12 09:00:00,71.6,64.0,30.03,SW,224,1.0,4.0,77,0.00,FEW,,0.00,WeatherDisplay:10.37,2013-08-11 23:00:00,
2013-08-12 09:10:00,72.6,63.8,30.03,SSW,196,1.0,3.0,74,0.00,FEW,,0.00,WeatherDisplay:10.37,2013-08-11 23:10:00,
2013-08-12 09:15:00,73.1,63.9,30.03,SSW,211,1.0,5.0,73,0.00,FEW,,0.00,WeatherDisplay:10.37,2013-08-11 23:15:00,
2013-08-12 09:25:00,74.0,64.0,30.03,SSW,201,0.0,4.0,71,0.00,FEW,,0.00,WeatherDisplay:10.37,2013-08-11 23:25:00,
2013-08-12 09:30:00,74.4,64.4,30.03,South,176,3.0,6.0,71,0.00,FEW,,0.00,WeatherDisplay:10.37,2013-08-11 23:30:00,
2013-08-12 09:40:00,75.5,64.6,30.03,South,172,1.0,4.0,69,0.00,FEW,,0.00,WeatherDisplay:10.37,2013-08-11 23:40:00,
2013-08-12 09:45:00,75.9,64.6,30.03,SSW,198,1.0,3.0,68,0.00,FEW,,0.00,WeatherDisplay:10.37,2013-08-11 23:45:00,
2013-08-12 09:55:00,77.1,64.8,30.03,SW,218,1.0,4.0,66,0.00,FEW,,0.00,WeatherDisplay:10.37,2013-08-11 23:55:00,
2013-08-12 10:00:00,77.3,64.6,30.03,WSW,246,2.0,5.0,65,0.00,FEW,,0.00,WeatherDisplay:10.37,2013-08-12 00:00:00,
2013-08-12 10:10:00,78.0,65.2,30.02,ESE,123,1.0,4.0,65,0.00,FEW,,0.00,WeatherDisplay:10.37,2013-08-12 00:10:00,
2013-08-12 10:15:00,78.5,64.4,30.02,SE,145,1.0,5.0,62,0.00,FEW,,0.00,WeatherDisplay:10.37,2013-08-12 00:15:00,
2013-08-12 10:25:00,79.4,64.3,30.02,SSE,150,1.0,5.0,60,0.00,FEW,,0.00,WeatherDisplay:10.37,2013-08-12 00:25:00,
2013-08-12 10:30:00,80.0,63.9,30.02,SE,126,1.0,4.0,58,0.00,FEW,,0.00,WeatherDisplay:10.37,2013-08-12 00:30:00,
2013-08-12 10:35:00,80.4,64.3,30.02,SSE,147,1.0,4.0,58,0.00,FEW,,0.00,WeatherDisplay:10.37,2013-08-12 00:35:00,
2013-08-12 10:40:00,80.6,64.4,30.02,SSE,168,1.0,5.0,58,0.00,FEW,,0.00,WeatherDisplay:10.37,2013-08-12 00:40:00,
2013-08-12 10:45:00,81.0,64.8,30.02,SE,143,1.0,4.0,58,0.00,FEW,,0.00,WeatherDisplay:10.37,2013-08-12 00:45:00,
2013-08-12 10:55:00,81.2,63.5,30.01,East,100,2.0,5.0,55,0.00,FEW,,0.00,WeatherDisplay:10.37,2013-08-12 00:55:00,
2013-08-12 11:00:00,80.8,64.6,30.01,East,86,2.0,4.0,58,0.00,FEW,,0.00,WeatherDisplay:10.37,2013-08-12 01:00:00,
2013-08-12 11:10:00,80.0,63.4,30.01,East,83,5.0,7.0,57,0.00,FEW,,0.00,WeatherDisplay:10.37,2013-08-12 01:10:00,
2013-08-12 11:15:00,79.8,64.7,30.00,East,83,5.0,7.0,60,0.00,FEW,,0.00,WeatherDisplay:10.37,2013-08-12 01:15:00,
2013-08-12 11:20:00,79.5,63.4,30.00,East,85,0.0,6.0,58,0.00,FEW,,0.00,WeatherDisplay:10.37,2013-08-12 01:20:00,
2013-08-12 11:25:00,79.8,63.7,30.00,East,86,3.0,5.0,58,0.00,FEW,,0.00,WeatherDisplay:10.37,2013-08-12 01:25:00,
2013-08-12 11:35:00,79.9,64.3,30.00,East,80,3.0,6.0,59,0.00,FEW,,0.00,WeatherDisplay:10.37,2013-08-12 01:35:00,
2013-08-12 11:40:00,80.0,65.4,30.00,East,79,3.0,5.0,61,0.00,FEW,,0.00,WeatherDisplay:10.37,2013-08-12 01:40:00,
2013-08-12 11:50:00,80.4,67.1,30.00,ENE,72,3.0,5.0,64,0.00,FEW,,0.00,WeatherDisplay:10.37,2013-08-12 01:50:00,
2013-08-12 11:55:00,80.7,66.9,29.99,ENE,72,3.0,6.0,63,0.00,FEW,,0.00,WeatherDisplay:10.37,2013-08-12 01:55:00,
2013-08-12 12:00:00,80.6,65.5,29.99,ENE,72,3.0,5.0,60,0.00,FEW,,0.00,WeatherDisplay:10.37,2013-08-12 02:00:00,
2013-08-12 12:10:00,80.8,65.6,29.99,ENE,70,3.0,4.0,60,0.00,FEW,,0.00,WeatherDisplay:10.37,2013-08-12 02:10:00,
2013-08-12 12:20:00,81.3,66.1,29.99,ENE,70,3.0,6.0,60,0.00,FEW,,0.00,WeatherDisplay:10.37,2013-08-12 02:20:00,
2013-08-12 12:25:00,81.4,66.2,29.98,ENE,69,5.0,7.0,60,0.00,FEW,,0.00,WeatherDisplay:10.37,2013-08-12 02:25:00,
2013-08-12 12:30:00,80.9,67.2,29.97,ENE,75,6.0,10.0,63,0.00,FEW,,0.00,WeatherDisplay:10.37,2013-08-12 02:30:00,
2013-08-12 12:35:00,80.8,67.5,29.98,ENE,74,5.0,9.0,64,0.00,FEW,,0.00,WeatherDisplay:10.37,2013-08-12 02:35:00,
2013-08-12 12:40:00,81.5,67.7,29.97,ENE,73,6.0,10.0,63,0.00,FEW,,0.00,WeatherDisplay:10.37,2013-08-12 02:40:00,
2013-08-12 12:50:00,78.7,65.9,29.97,East,89,7.0,12.0,65,0.00,FEW,,0.00,WeatherDisplay:10.37,2013-08-12 02:50:00,
2013-08-12 12:55:00,78.1,65.8,29.97,East,92,7.0,12.0,66,0.00,FEW,,0.00,WeatherDisplay:10.37,2013-08-12 02:55:00,
2013-08-12 13:00:00,78.1,66.2,29.96,East,90,9.0,12.0,67,0.00,FEW,,0.00,WeatherDisplay:10.37,2013-08-12 03:00:00,
2013-08-12 13:10:00,78.3,66.5,29.96,East,87,8.0,12.0,67,0.00,FEW,,0.00,WeatherDisplay:10.37,2013-08-12 03:10:00,
2013-08-12 13:15:00,78.1,66.7,29.96,East,89,8.0,13.0,68,0.00,FEW,,0.00,WeatherDisplay:10.37,2013-08-12 03:15:00,
2013-08-12 13:25:00,78.0,65.7,29.96,East,91,10.0,13.0,66,0.00,FEW,,0.00,WeatherDisplay:10.37,2013-08-12 03:25:00,
2013-08-12 13:35:00,77.9,66.9,29.95,East,84,10.0,13.0,69,0.00,FEW,,0.00,WeatherDisplay:10.37,2013-08-12 03:35:00,
2013-08-12 13:40:00,77.8,66.3,29.95,East,87,12.0,13.0,68,0.00,FEW,,0.00,WeatherDisplay:10.37,2013-08-12 03:40:00,
2013-08-12 13:50:00,77.5,66.9,29.94,East,85,10.0,14.0,70,0.00,FEW,,0.00,WeatherDisplay:10.37,2013-08-12 03:50:00,
2013-08-12 13:55:00,77.8,67.6,29.94,East,85,9.0,13.0,71,0.00,FEW,,0.00,WeatherDisplay:10.37,2013-08-12 03:55:00,
2013-08-12 14:00:00,77.7,66.8,29.94,East,84,12.0,14.0,69,0.00,FEW,,0.00,WeatherDisplay:10.37,2013-08-12 04:00:00,
2013-08-12 14:05:00,77.9,67.3,29.94,East,81,9.0,12.0,70,0.00,FEW,,0.00,WeatherDisplay:10.37,2013-08-12 04:05:00,
2013-08-12 14:10:00,77.7,67.1,29.94,East,82,9.0,13.0,70,0.00,FEW,,0.00,WeatherDisplay:10.37,2013-08-12 04:10:00,
2013-08-12 14:15:00,77.8,67.2,29.93,East,82,9.0,13.0,70,0.00,FEW,,0.00,WeatherDisplay:10.37,2013-08-12 04:15:00,
2013-08-12 14:20:00,78.1,67.5,29.93,East,79,9.0,13.0,70,0.00,FEW,,0.00,WeatherDisplay:10.37,2013-08-12 04:20:00,
2013-08-12 14:25:00,78.0,67.4,29.93,East,80,8.0,13.0,70,0.00,FEW,,0.00,WeatherDisplay:10.37,2013-08-12 04:25:00,
2013-08-12 14:30:00,78.1,67.1,29.93,East,82,9.0,12.0,69,0.00,FEW,,0.00,WeatherDisplay:10.37,2013-08-12 04:30:00,
2013-08-12 14:35:00,78.0,67.0,29.93,ENE,77,9.0,12.0,69,0.00,FEW,,0.00,WeatherDisplay:10.37,2013-08-12 04:35:00,
2013-08-12 14:40:00,78.2,68.1,29.93,ENE,74,8.0,12.0,71,0.00,FEW,,0.00,WeatherDisplay:10.37,2013-08-12 04:40:00,
2013-08-12 14:45:00,78.1,67.1,29.92,ENE,74,9.0,12.0,69,0.00,CLR,,0.00,WeatherDisplay:10.37,2013-08-12 04:45:00,
2013-08-12 14:55:00,78.0,67.8,29.92,ENE,77,9.0,12.0,71,0.00,FEW,,0.00,WeatherDisplay:10.37,2013-08-12 04:55:00,
2013-08-12 15:00:00,78.0,67.4,29.92,East,81,9.0,13.0,70,0.00,FEW,,0.00,WeatherDisplay:10.37,2013-08-12 05:00:00,
2013-08-12 15:05:00,77.7,67.6,29.92,East,85,10.0,13.0,71,0.00,FEW,,0.00,WeatherDisplay:10.37,2013-08-12 05:05:00,
2013-08-12 15:10:00,77.6,67.9,29.92,East,87,8.0,13.0,72,0.00,FEW,,0.00,WeatherDisplay:10.37,2013-08-12 05:10:00,
2013-08-12 15:15:00,77.8,67.6,29.92,East,86,8.0,12.0,71,0.00,FEW,,0.00,WeatherDisplay:10.37,2013-08-12 05:15:00,
2013-08-12 15:20:00,77.4,67.2,29.92,East,84,10.0,13.0,71,0.00,FEW,,0.00,WeatherDisplay:10.37,2013-08-12 05:20:00,
2013-08-12 15:25:00,77.3,67.5,29.92,East,84,10.0,12.0,72,0.00,FEW,,0.00,WeatherDisplay:10.37,2013-08-12 05:25:00,
2013-08-12 15:30:00,77.1,67.8,29.92,East,83,8.0,13.0,73,0.00,FEW,,0.00,WeatherDisplay:10.37,2013-08-12 05:30:00,
2013-08-12 15:35:00,77.1,67.4,29.92,East,85,9.0,12.0,72,0.00,FEW,,0.00,WeatherDisplay:10.37,2013-08-12 05:35:00,
2013-08-12 15:40:00,77.1,67.4,29.92,East,90,8.0,12.0,72,0.00,FEW,,0.00,WeatherDisplay:10.37,2013-08-12 05:40:00,
2013-08-12 15:45:00,77.2,67.0,29.92,East,87,9.0,12.0,71,0.00,FEW,,0.00,WeatherDisplay:10.37,2013-08-12 05:45:00,
2013-08-12 15:50:00,77.0,66.9,29.92,East,88,9.0,12.0,71,0.00,FEW,,0.00,WeatherDisplay:10.37,2013-08-12 05:50:00,
2013-08-12 16:00:00,76.4,66.3,29.92,East,88,7.0,12.0,71,0.00,FEW,,0.00,WeatherDisplay:10.37,2013-08-12 06:00:00,
2013-08-12 16:10:00,76.4,66.7,29.92,East,95,8.0,12.0,72,0.00,FEW,,0.00,WeatherDisplay:10.37,2013-08-12 06:10:00,
2013-08-12 16:15:00,76.5,67.2,29.92,East,94,7.0,10.0,73,0.00,FEW,,0.00,WeatherDisplay:10.37,2013-08-12 06:15:00,
2013-08-12 16:20:00,76.4,67.1,29.92,East,94,7.0,12.0,73,0.00,FEW,,0.00,WeatherDisplay:10.37,2013-08-12 06:20:00,
2013-08-12 16:25:00,76.4,67.1,29.92,East,93,6.0,10.0,73,0.00,FEW,,0.00,WeatherDisplay:10.37,2013-08-12 06:25:00,
2013-08-12 16:30:00,76.3,66.6,29.92,East,95,5.0,7.0,72,0.00,FEW,,0.00,WeatherDisplay:10.37,2013-08-12 06:30:00,
2013-08-12 16:35:00,76.1,66.0,29.92,East,97,5.0,9.0,71,0.00,FEW,,0.00,WeatherDisplay:10.37,2013-08-12 06:35:00,
2013-08-12 16:40:00,76.0,66.3,29.92,East,99,3.0,9.0,72,0.00,FEW,,0.00,WeatherDisplay:10.37,2013-08-12 06:40:00,
2013-08-12 16:50:00,75.9,65.8,29.93,East,96,5.0,7.0,71,0.00,FEW,,0.00,WeatherDisplay:10.37,2013-08-12 06:50:00,
2013-08-12 16:55:00,76.0,66.7,29.93,East,99,3.0,6.0,73,0.00,FEW,,0.00,WeatherDisplay:10.37,2013-08-12 06:55:00,
2013-08-12 17:00:00,75.9,66.2,29.93,East,97,3.0,6.0,72,0.00,FEW,,0.00,WeatherDisplay:10.37,2013-08-12 07:00:00,
2013-08-12 17:10:00,75.7,66.0,29.93,East,99,5.0,7.0,72,0.00,FEW,,0.00,WeatherDisplay:10.37,2013-08-12 07:10:00,
2013-08-12 17:15:00,75.5,65.4,29.93,East,99,6.0,9.0,71,0.00,FEW,,0.00,WeatherDisplay:10.37,2013-08-12 07:15:00,
2013-08-12 17:20:00,75.4,66.1,29.93,East,101,5.0,7.0,73,0.00,FEW,,0.00,WeatherDisplay:10.37,2013-08-12 07:20:00,
2013-08-12 17:25:00,75.3,65.6,29.93,East,101,5.0,9.0,72,0.00,FEW,,0.00,WeatherDisplay:10.37,2013-08-12 07:25:00,
2013-08-12 17:35:00,75.2,65.6,29.94,East,101,5.0,7.0,72,0.00,FEW,,0.00,WeatherDisplay:10.37,2013-08-12 07:35:00,
2013-08-12 17:40:00,75.1,65.5,29.94,ESE,102,5.0,7.0,72,0.00,FEW,,0.00,WeatherDisplay:10.37,2013-08-12 07:40:00,
2013-08-12 17:45:00,75.0,65.4,29.94,East,101,6.0,7.0,72,0.00,FEW,,0.00,WeatherDisplay:10.37,2013-08-12 07:45:00,
2013-08-12 17:50:00,74.9,65.7,29.94,ESE,102,5.0,7.0,73,0.00,FEW,,0.00,WeatherDisplay:10.37,2013-08-12 07:50:00,
2013-08-12 17:55:00,74.8,65.6,29.94,ESE,102,5.0,6.0,73,0.00,FEW,,0.00,WeatherDisplay:10.37,2013-08-12 07:55:00,
2013-08-12 18:00:00,74.7,65.4,29.94,East,100,3.0,6.0,73,0.00,FEW,,0.00,WeatherDisplay:10.37,2013-08-12 08:00:00,
2013-08-12 18:10:00,74.4,65.6,29.94,East,100,1.0,5.0,74,0.00,FEW,,0.00,WeatherDisplay:10.37,2013-08-12 08:10:00,
2013-08-12 18:15:00,74.4,65.5,29.94,East,98,0.0,2.0,74,0.00,FEW,,0.00,WeatherDisplay:10.37,2013-08-12 08:15:00,
2013-08-12 18:20:00,74.2,65.4,29.95,East,101,0.0,5.0,74,0.00,FEW,,0.00,WeatherDisplay:10.37,2013-08-12 08:20:00,
2013-08-12 18:25:00,74.1,65.7,29.95,ESE,103,0.0,2.0,75,0.00,FEW,,0.00,WeatherDisplay:10.37,2013-08-12 08:25:00,
2013-08-12 18:30:00,74.0,65.2,29.95,ESE,104,0.0,2.0,74,0.00,FEW,,0.00,WeatherDisplay:10.37,2013-08-12 08:30:00,
2013-08-12 18:35:00,73.8,65.0,29.96,ESE,105,0.0,2.0,74,0.00,FEW,,0.00,WeatherDisplay:10.37,2013-08-12 08:35:00,
2013-08-12 18:40:00,73.5,64.7,29.96,ESE,107,0.0,1.0,74,0.00,FEW,,0.00,WeatherDisplay:10.37,2013-08-12 08:40:00,
2013-08-12 18:45:00,73.1,63.9,29.96,ESE,108,0.0,3.0,73,0.00,FEW,,0.00,WeatherDisplay:10.37,2013-08-12 08:45:00,
2013-08-12 18:50:00,72.8,63.6,29.96,ESE,108,0.0,3.0,73,0.00,FEW,,0.00,WeatherDisplay:10.37,2013-08-12 08:50:00,
2013-08-12 18:55:00,72.6,63.5,29.96,ESE,108,0.0,0.0,73,0.00,FEW,,0.00,WeatherDisplay:10.37,2013-08-12 08:55:00,
2013-08-12 19:00:00,72.4,63.3,29.96,ESE,108,0.0,1.0,73,0.00,FEW,,0.00,WeatherDisplay:10.37,2013-08-12 09:00:00,
2013-08-12 19:10:00,72.1,63.0,29.96,SE,126,1.0,2.0,73,0.00,FEW,,0.00,WeatherDisplay:10.37,2013-08-12 09:10:00,
2013-08-12 19:20:00,72.0,62.8,29.97,SW,219,0.0,2.0,73,0.00,FEW,,0.00,WeatherDisplay:10.37,2013-08-12 09:20:00,
2013-08-12 19:25:00,71.7,63.0,29.97,SW,218,0.0,0.0,74,0.00,FEW,,0.00,WeatherDisplay:10.37,2013-08-12 09:25:00,
2013-08-12 19:30:00,71.5,62.8,29.97,SW,218,0.0,0.0,74,0.00,FEW,,0.00,WeatherDisplay:10.37,2013-08-12 09:30:00,
2013-08-12 19:35:00,71.2,62.5,29.97,SW,218,0.0,0.0,74,0.00,FEW,,0.00,WeatherDisplay:10.37,2013-08-12 09:35:00,
2013-08-12 19:40:00,70.9,62.6,29.98,SW,218,0.0,1.0,75,0.00,FEW,,0.00,WeatherDisplay:10.37,2013-08-12 09:40:00,
2013-08-12 19:45:00,70.6,62.3,29.98,SW,218,0.0,0.0,75,0.00,FEW,,0.00,WeatherDisplay:10.37,2013-08-12 09:45:00,
2013-08-12 19:50:00,70.3,62.0,29.98,SW,218,0.0,0.0,75,0.00,FEW,,0.00,WeatherDisplay:10.37,2013-08-12 09:50:00,
2013-08-12 19:55:00,70.0,62.1,29.98,SW,218,0.0,0.0,76,0.00,FEW,,0.00,WeatherDisplay:10.37,2013-08-12 09:55:00,
2013-08-12 20:00:00,69.7,61.8,29.98,SW,218,0.0,0.0,76,0.00,FEW,,0.00,WeatherDisplay:10.37,2013-08-12 10:00:00,
2013-08-12 20:05:00,69.5,62.0,29.99,SW,218,0.0,0.0,77,0.00,FEW,,0.00,WeatherDisplay:10.37,2013-08-12 10:05:00,
2013-08-12 20:15:00,69.0,61.5,29.99,SW,218,0.0,0.0,77,0.00,FEW,,0.00,WeatherDisplay:10.37,2013-08-12 10:15:00,
2013-08-12 20:20:00,68.7,61.5,29.99,SW,218,0.0,0.0,78,0.00,FEW,,0.00,WeatherDisplay:10.37,2013-08-12 10:20:00,
2013-08-12 20:25:00,68.4,61.6,29.99,SW,218,0.0,0.0,79,0.00,FEW,,0.00,WeatherDisplay:10.37,2013-08-12 10:25:00,
2013-08-12 20:30:00,68.1,61.4,29.99,SW,218,0.0,0.0,79,0.00,FEW,,0.00,WeatherDisplay:10.37,2013-08-12 10:30:00,
2013-08-12 20:40:00,67.7,61.3,30.00,SW,218,0.0,0.0,80,0.00,FEW,,0.00,WeatherDisplay:10.37,2013-08-12 10:40:00,
2013-08-12 20:45:00,67.5,61.1,30.00,SW,218,0.0,0.0,80,0.00,FEW,,0.00,WeatherDisplay:10.37,2013-08-12 10:45:00,
2013-08-12 20:50:00,67.2,61.2,30.00,SW,218,0.0,0.0,81,0.00,FEW,,0.00,WeatherDisplay:10.37,2013-08-12 10:50:00,
2013-08-12 20:55:00,67.0,61.0,30.00,SW,218,0.0,0.0,81,0.00,CLR,,0.00,WeatherDisplay:10.37,2013-08-12 10:55:00,
2013-08-12 21:00:00,66.9,60.9,30.00,SW,218,0.0,0.0,81,0.00,CLR,,0.00,WeatherDisplay:10.37,2013-08-12 11:00:00,
2013-08-12 21:05:00,66.7,60.7,30.00,SW,218,0.0,0.0,81,0.00,CLR,,0.00,WeatherDisplay:10.37,2013-08-12 11:05:00,
2013-08-12 21:10:00,66.6,60.9,30.00,SW,218,0.0,0.0,82,0.00,CLR,,0.00,WeatherDisplay:10.37,2013-08-12 11:10:00,
2013-08-12 21:15:00,66.4,60.7,30.00,SW,218,0.0,0.0,82,0.00,CLR,,0.00,WeatherDisplay:10.37,2013-08-12 11:15:00,
2013-08-12 21:20:00,66.2,60.6,30.00,SW,218,0.0,0.0,82,0.00,CLR,,0.00,WeatherDisplay:10.37,2013-08-12 11:20:00,
2013-08-12 21:25:00,66.1,60.4,30.01,SW,218,0.0,0.0,82,0.00,CLR,,0.00,WeatherDisplay:10.37,2013-08-12 11:25:00,
2013-08-12 21:30:00,66.0,60.7,30.01,SW,218,0.0,0.0,83,0.00,CLR,,0.00,WeatherDisplay:10.37,2013-08-12 11:30:00,
2013-08-12 21:40:00,65.8,60.5,30.01,SW,218,0.0,0.0,83,0.00,CLR,,0.00,WeatherDisplay:10.37,2013-08-12 11:40:00,
2013-08-12 21:45:00,65.7,60.4,30.01,SW,218,0.0,0.0,83,0.00,CLR,,0.00,WeatherDisplay:10.37,2013-08-12 11:45:00,
2013-08-12 21:50:00,65.6,60.3,30.01,SW,218,0.0,1.0,83,0.00,CLR,,0.00,WeatherDisplay:10.37,2013-08-12 11:50:00,
2013-08-12 21:55:00,65.4,60.4,30.01,SW,218,0.0,0.0,84,0.00,CLR,,0.00,WeatherDisplay:10.37,2013-08-12 11:55:00,
2013-08-12 22:00:00,65.3,60.3,30.01,SW,218,0.0,0.0,84,0.00,CLR,,0.00,WeatherDisplay:10.37,2013-08-12 12:00:00,
2013-08-12 22:10:00,65.1,60.1,30.01,SW,218,0.0,0.0,84,0.00,CLR,,0.00,WeatherDisplay:10.37,2013-08-12 12:10:00,
2013-08-12 22:15:00,64.9,60.0,30.01,SW,218,0.0,1.0,84,0.00,CLR,,0.00,WeatherDisplay:10.37,2013-08-12 12:15:00,
2013-08-12 22:20:00,64.8,60.2,30.01,SW,218,0.0,0.0,85,0.00,CLR,,0.00,WeatherDisplay:10.37,2013-08-12 12:20:00,
2013-08-12 22:25:00,64.7,60.1,30.01,SW,218,0.0,0.0,85,0.00,CLR,,0.00,WeatherDisplay:10.37,2013-08-12 12:25:00,
2013-08-12 22:30:00,64.7,60.1,30.01,SW,218,0.0,1.0,85,0.00,CLR,,0.00,WeatherDisplay:10.37,2013-08-12 12:30:00,
2013-08-12 22:35:00,64.8,60.2,30.01,SW,218,0.0,0.0,85,0.00,CLR,,0.00,WeatherDisplay:10.37,2013-08-12 12:35:00,
2013-08-12 22:45:00,65.0,60.4,30.01,SW,218,0.0,0.0,85,0.00,CLR,,0.00,WeatherDisplay:10.37,2013-08-12 12:45:00,
2013-08-12 22:50:00,65.1,60.1,30.01,SW,218,0.0,1.0,84,0.00,CLR,,0.00,WeatherDisplay:10.37,2013-08-12 12:50:00,
2013-08-12 22:55:00,65.2,60.2,30.01,SW,218,0.0,1.0,84,0.00,CLR,,0.00,WeatherDisplay:10.37,2013-08-12 12:55:00,
2013-08-12 23:00:00,65.3,60.4,30.01,SW,218,0.0,1.0,84,0.00,CLR,,0.00,WeatherDisplay:10.37,2013-08-12 13:00:00,
2013-08-12 23:05:00,65.6,60.6,30.01,SW,218,0.0,2.0,84,0.00,CLR,,0.00,WeatherDisplay:10.37,2013-08-12 13:05:00,
2013-08-12 23:10:00,65.7,60.7,30.01,SW,218,0.0,1.0,84,0.00,CLR,,0.00,WeatherDisplay:10.37,2013-08-12 13:10:00,
2013-08-12 23:15:00,65.8,60.8,30.01,SW,218,0.0,1.0,84,0.00,CLR,,0.00,WeatherDisplay:10.37,2013-08-12 13:15:00,
2013-08-12 23:20:00,65.9,60.9,30.01,SW,218,0.0,2.0,84,0.00,CLR,,0.00,WeatherDisplay:10.37,2013-08-12 13:20:00,
2013-08-12 23:25:00,66.0,61.0,30.01,SW,218,0.0,1.0,84,0.00,FEW,,0.00,WeatherDisplay:10.37,2013-08-12 13:25:00,
2013-08-12 23:30:00,66.0,60.7,30.01,SW,218,0.0,3.0,83,0.00,FEW,,0.00,WeatherDisplay:10.37,2013-08-12 13:30:00,
2013-08-12 23:40:00,66.2,60.9,30.01,SW,218,0.0,2.0,83,0.00,FEW,,0.00,WeatherDisplay:10.37,2013-08-12 13:40:00,
2013-08-12 23:50:00,66.1,60.8,30.01,SW,218,0.0,2.0,83,0.00,FEW,,0.00,WeatherDisplay:10.37,2013-08-12 13:50:00,
2013-08-12 23:55:00,66.0,60.7,30.01,SW,218,0.0,1.0,83,0.00,FEW,,0.00,WeatherDisplay:10.37,2013-08-12 13:55:00,